createdAt,value
2023-01-21T00:01:20.718Z,2.34
2023-01-21T00:03:48.128Z,2.36
2023-01-21T00:06:15.980Z,2.39
2023-01-21T00:08:43.852Z,2.40
2023-01-21T00:11:15.290Z,2.45
2023-01-21T00:13:44.535Z,2.47
2023-01-21T00:16:13.674Z,2.54
2023-01-21T00:18:41.820Z,2.61
2023-01-21T00:21:10.264Z,2.69
2023-01-21T00:23:37.586Z,2.66
2023-01-21T00:26:08.615Z,2.71
2023-01-21T00:28:37.202Z,2.67
2023-01-21T00:31:09.160Z,2.74
2023-01-21T00:33:37.256Z,2.73
2023-01-21T00:36:09.042Z,2.77
2023-01-21T00:38:37.867Z,2.76
2023-01-21T00:41:13.128Z,2.76
2023-01-21T00:43:42.078Z,2.78
2023-01-21T00:46:11.068Z,2.86
2023-01-21T00:48:38.860Z,2.88
2023-01-21T00:51:07.020Z,2.91
2023-01-21T00:53:38.382Z,2.95
2023-01-21T00:56:10.427Z,2.98
2023-01-21T00:58:38.219Z,2.96
2023-01-21T01:01:13.626Z,2.97
2023-01-21T01:03:42.428Z,2.94
2023-01-21T01:06:15.562Z,2.83
2023-01-21T01:08:44.364Z,2.88
2023-01-21T01:11:13.380Z,2.96
2023-01-21T01:13:41.156Z,2.98
2023-01-21T01:16:10.734Z,3.06
2023-01-21T01:18:38.390Z,3.12
2023-01-21T01:21:06.830Z,3.09
2023-01-21T01:23:34.129Z,3.15
2023-01-21T01:26:06.081Z,3.05
2023-01-21T01:28:34.686Z,3.12
2023-01-21T01:31:08.695Z,3.16
2023-01-21T01:33:36.036Z,3.10
2023-01-21T01:36:14.124Z,3.12
2023-01-21T01:38:41.787Z,3.15
2023-01-21T01:41:16.462Z,3.16
2023-01-21T01:44:00.865Z,3.21
2023-01-21T01:46:37.193Z,3.25
2023-01-21T01:49:07.234Z,3.24
2023-01-21T01:51:42.817Z,3.22
2023-01-21T01:54:14.545Z,3.28
2023-01-21T01:56:48.095Z,3.29
2023-01-21T01:59:16.326Z,3.28
2023-01-21T02:01:43.993Z,3.37
2023-01-21T02:04:21.031Z,3.35
2023-01-21T02:06:52.040Z,3.30
2023-01-21T02:09:19.547Z,3.26
2023-01-21T02:11:47.394Z,3.22
2023-01-21T02:14:14.776Z,3.27
2023-01-21T02:17:14.577Z,3.26
2023-01-21T02:19:50.086Z,3.27
2023-01-21T02:22:30.876Z,3.26
2023-01-21T02:25:54.911Z,3.22
2023-01-21T02:29:05.080Z,3.16
2023-01-21T02:31:53.078Z,3.19
2023-01-21T02:34:35.367Z,3.23
2023-01-21T02:37:51.823Z,3.22
2023-01-21T02:40:58.148Z,3.17
2023-01-21T02:44:08.061Z,3.09
2023-01-21T02:46:48.967Z,3.07
2023-01-21T02:49:45.553Z,3.08
2023-01-21T02:52:26.418Z,3.13
2023-01-21T02:55:00.113Z,3.09
2023-01-21T02:57:47.624Z,3.09
2023-01-21T03:00:53.654Z,2.98
2023-01-21T03:03:44.211Z,2.98
2023-01-21T03:06:44.715Z,3.01
2023-01-21T03:09:31.055Z,3.02
2023-01-21T03:12:22.607Z,3.04
2023-01-21T03:15:31.832Z,3.08
2023-01-21T03:18:25.282Z,3.06
2023-01-21T03:21:25.136Z,3.12
2023-01-21T03:23:55.299Z,3.15
2023-01-21T03:26:35.871Z,3.15
2023-01-21T03:29:16.802Z,3.13
2023-01-21T03:31:50.330Z,3.19
2023-01-21T03:34:21.388Z,3.20
2023-01-21T03:37:05.417Z,3.25
2023-01-21T03:40:20.969Z,3.16
2023-01-21T03:42:51.152Z,3.11
2023-01-21T03:45:45.783Z,3.06
2023-01-21T03:48:52.895Z,3.03
2023-01-21T03:51:39.083Z,3.13
2023-01-21T03:54:06.680Z,3.07
2023-01-21T03:56:33.979Z,3.15
2023-01-21T03:59:01.620Z,3.12
2023-01-21T04:01:28.916Z,3.10
2023-01-21T04:03:56.488Z,3.07
2023-01-21T04:06:24.213Z,3.04
2023-01-21T04:08:51.772Z,3.04
2023-01-21T04:11:19.073Z,2.99
2023-01-21T04:13:46.611Z,2.95
2023-01-21T04:16:13.940Z,2.94
2023-01-21T04:18:41.483Z,2.95
2023-01-21T04:21:08.909Z,2.89
2023-01-21T04:23:36.442Z,2.85
2023-01-21T04:26:03.790Z,2.82
2023-01-21T04:28:31.424Z,2.84
2023-01-21T04:30:58.707Z,2.82
2023-01-21T04:33:26.688Z,2.74
2023-01-21T04:35:59.678Z,2.71
2023-01-21T04:38:28.187Z,2.72
2023-01-21T04:40:55.577Z,2.69
2023-01-21T04:43:23.170Z,2.67
2023-01-21T04:45:50.718Z,2.63
2023-01-21T04:48:18.580Z,2.64
2023-01-21T04:50:47.454Z,2.64
2023-01-21T04:53:15.090Z,2.65
2023-01-21T04:55:42.303Z,2.56
2023-01-21T04:58:09.981Z,2.52
2023-01-21T05:00:37.339Z,2.63
2023-01-21T05:03:05.109Z,2.60
2023-01-21T05:05:32.314Z,2.62
2023-01-21T05:07:59.988Z,2.55
2023-01-21T05:10:27.341Z,2.60
2023-01-21T05:12:54.918Z,2.51
2023-01-21T05:15:22.324Z,2.54
2023-01-21T05:17:49.915Z,2.54
2023-01-21T05:20:17.729Z,2.59
2023-01-21T05:22:48.942Z,2.47
2023-01-21T05:25:17.025Z,2.59
2023-01-21T05:27:44.616Z,2.60
2023-01-21T05:30:12.194Z,2.60
2023-01-21T05:32:40.953Z,2.56
2023-01-21T05:35:09.051Z,2.59
2023-01-21T05:37:36.617Z,2.56
2023-01-21T05:40:04.391Z,2.55
2023-01-21T05:42:31.963Z,2.53
2023-01-21T05:45:01.558Z,2.44
2023-01-21T05:47:29.208Z,2.39
2023-01-21T05:49:56.488Z,2.39
2023-01-21T05:52:24.083Z,2.36
2023-01-21T05:55:01.429Z,2.37
2023-01-21T05:57:31.604Z,2.33
2023-01-21T05:59:59.237Z,2.29
2023-01-21T06:02:27.441Z,2.28
2023-01-21T06:04:54.839Z,2.32
2023-01-21T06:07:22.443Z,2.28
2023-01-21T06:09:49.735Z,2.21
2023-01-21T06:12:17.309Z,2.19
2023-01-21T06:14:44.545Z,2.22
2023-01-21T06:17:12.161Z,2.28
2023-01-21T06:19:39.375Z,2.30
2023-01-21T06:22:06.909Z,2.30
2023-01-21T06:24:34.298Z,2.26
2023-01-21T06:27:01.983Z,2.22
2023-01-21T06:29:29.232Z,2.27
2023-01-21T06:31:56.840Z,2.27
2023-01-21T06:34:24.169Z,2.25
2023-01-21T06:36:51.759Z,2.21
2023-01-21T06:39:19.196Z,2.29
2023-01-21T06:41:46.719Z,2.37
2023-01-21T06:44:14.150Z,2.38
2023-01-21T06:46:45.965Z,2.37
2023-01-21T06:49:19.549Z,2.46
2023-01-21T06:51:47.220Z,2.46
2023-01-21T06:54:14.620Z,2.51
2023-01-21T06:56:43.728Z,2.47
2023-01-21T06:59:11.263Z,2.52
2023-01-21T07:01:38.837Z,2.54
2023-01-21T07:04:06.142Z,2.52
2023-01-21T07:06:33.771Z,2.45
2023-01-21T07:09:01.343Z,2.55
2023-01-21T07:11:28.887Z,2.52
2023-01-21T07:13:56.167Z,2.55
2023-01-21T07:16:24.237Z,2.60
2023-01-21T07:18:51.557Z,2.63
2023-01-21T07:21:19.533Z,2.71
2023-01-21T07:23:47.100Z,2.74
2023-01-21T07:26:15.353Z,2.84
2023-01-21T07:28:42.629Z,2.82
2023-01-21T07:31:10.261Z,2.82
2023-01-21T07:33:37.797Z,2.75
2023-01-21T07:36:06.047Z,2.81
2023-01-21T07:38:33.990Z,2.81
2023-01-21T07:41:01.651Z,2.79
2023-01-21T07:43:28.998Z,2.83
2023-01-21T07:45:59.904Z,2.85
2023-01-21T07:48:27.454Z,2.74
2023-01-21T07:50:58.887Z,2.90
2023-01-21T07:53:27.049Z,2.96
2023-01-21T07:55:54.611Z,3.06
2023-01-21T07:58:21.944Z,3.21
2023-01-21T08:00:49.657Z,3.25
2023-01-21T08:03:20.126Z,3.34
2023-01-21T08:05:47.828Z,3.40
2023-01-21T08:08:15.163Z,3.47
2023-01-21T08:10:42.783Z,3.54
2023-01-21T08:13:10.188Z,3.65
2023-01-21T08:15:37.868Z,3.79
2023-01-21T08:18:05.234Z,3.77
2023-01-21T08:20:32.937Z,3.68
2023-01-21T08:23:01.476Z,3.59
2023-01-21T08:25:29.006Z,3.68
2023-01-21T08:27:59.329Z,3.59
2023-01-21T08:30:27.195Z,3.66
2023-01-21T08:32:54.661Z,3.64
2023-01-21T08:35:22.255Z,3.66
2023-01-21T08:37:50.001Z,3.61
2023-01-21T08:40:17.701Z,3.69
2023-01-21T08:42:45.004Z,3.68
2023-01-21T08:45:15.144Z,3.73
2023-01-21T08:47:42.673Z,3.74
2023-01-21T08:50:11.230Z,3.83
2023-01-21T08:52:38.551Z,3.85
2023-01-21T08:55:06.942Z,3.79
2023-01-21T08:57:34.637Z,3.80
2023-01-21T09:00:02.216Z,3.67
2023-01-21T09:02:29.601Z,3.84
2023-01-21T09:04:57.310Z,3.90
2023-01-21T09:07:24.647Z,3.80
2023-01-21T09:09:52.227Z,3.87
2023-01-21T09:12:19.735Z,3.80
2023-01-21T09:14:47.330Z,3.91
2023-01-21T09:17:14.675Z,3.94
2023-01-21T09:19:42.351Z,4.02
2023-01-21T09:22:09.753Z,3.95
2023-01-21T09:24:37.745Z,3.99
2023-01-21T09:27:07.839Z,4.07
2023-01-21T09:29:35.670Z,4.11
2023-01-21T09:32:05.315Z,4.17
2023-01-21T09:34:35.436Z,4.25
2023-01-21T09:37:05.152Z,4.38
2023-01-21T09:39:32.776Z,4.46
2023-01-21T09:42:00.187Z,4.43
2023-01-21T09:44:49.233Z,4.53
2023-01-21T09:47:39.420Z,4.53
2023-01-21T09:50:35.144Z,4.65
2023-01-21T09:53:26.328Z,4.75
2023-01-21T09:55:59.617Z,4.87
2023-01-21T09:59:02.496Z,4.96
2023-01-21T10:01:40.512Z,4.98
2023-01-21T10:04:22.633Z,4.99
2023-01-21T10:07:08.585Z,4.93
2023-01-21T10:10:17.078Z,4.90
2023-01-21T10:13:25.464Z,4.72
2023-01-21T10:16:13.415Z,4.72
2023-01-21T10:18:47.539Z,4.79
2023-01-21T10:21:23.720Z,4.81
2023-01-21T10:23:59.653Z,4.92
2023-01-21T10:26:29.880Z,4.99
2023-01-21T10:28:57.531Z,4.96
2023-01-21T10:31:36.038Z,4.95
2023-01-21T10:34:20.223Z,4.90
2023-01-21T10:37:43.262Z,4.76
2023-01-21T10:40:43.931Z,4.87
2023-01-21T10:43:47.592Z,4.87
2023-01-21T10:47:02.625Z,4.79
2023-01-21T10:50:00.550Z,4.66
2023-01-21T10:52:39.807Z,4.68
2023-01-21T10:55:45.972Z,4.48
2023-01-21T10:58:41.064Z,4.43
2023-01-21T11:01:20.961Z,4.42
2023-01-21T11:03:54.970Z,4.54
2023-01-21T11:06:25.086Z,4.55
2023-01-21T11:09:03.090Z,4.55
2023-01-21T11:11:36.975Z,4.52
2023-01-21T11:14:04.578Z,4.48
2023-01-21T11:16:43.069Z,4.45
2023-01-21T11:19:16.566Z,4.35
2023-01-21T11:22:04.417Z,4.36
2023-01-21T11:24:52.822Z,4.45
2023-01-21T11:27:22.540Z,4.37
2023-01-21T11:29:50.957Z,4.18
2023-01-21T11:32:30.421Z,4.07
2023-01-21T11:35:23.243Z,4.12
2023-01-21T11:37:50.785Z,4.21
2023-01-21T11:40:26.066Z,4.09
2023-01-21T11:42:56.628Z,4.05
2023-01-21T11:45:33.092Z,4.01
2023-01-21T11:48:01.791Z,4.12
2023-01-21T11:50:37.975Z,3.97
2023-01-21T11:53:09.096Z,4.06
2023-01-21T11:55:51.555Z,4.16
2023-01-21T11:58:31.532Z,4.20
2023-01-21T12:01:18.940Z,4.19
2023-01-21T12:03:57.331Z,4.25
2023-01-21T12:06:32.026Z,4.41
2023-01-21T12:09:07.940Z,4.37
2023-01-21T12:11:35.624Z,4.36
2023-01-21T12:14:44.271Z,4.39
2023-01-21T12:17:45.254Z,4.15
2023-01-21T12:20:58.458Z,4.30
2023-01-21T12:23:36.112Z,4.35
2023-01-21T12:26:34.055Z,4.30
2023-01-21T12:29:09.511Z,4.31
2023-01-21T12:31:45.627Z,4.36
2023-01-21T12:34:32.423Z,4.25
2023-01-21T12:37:11.674Z,4.13
2023-01-21T12:39:42.576Z,4.29
2023-01-21T12:42:43.617Z,4.28
2023-01-21T12:45:17.976Z,4.24
2023-01-21T12:47:51.429Z,4.21
2023-01-21T12:50:30.376Z,4.19
2023-01-21T12:53:09.973Z,4.23
2023-01-21T12:55:58.968Z,4.17
2023-01-21T12:58:38.356Z,4.08
2023-01-21T13:01:31.258Z,4.12
2023-01-21T13:04:30.194Z,4.11
2023-01-21T13:07:14.882Z,4.21
2023-01-21T13:09:58.144Z,4.24
2023-01-21T13:12:30.878Z,4.34
2023-01-21T13:15:25.131Z,4.42
2023-01-21T13:17:59.904Z,4.56
2023-01-21T13:20:30.185Z,4.55
2023-01-21T13:23:29.444Z,4.39
2023-01-21T13:26:29.159Z,4.40
2023-01-21T13:29:17.675Z,4.40
2023-01-21T13:32:11.914Z,4.42
2023-01-21T13:34:51.505Z,4.53
2023-01-21T13:37:49.207Z,4.59
2023-01-21T13:40:28.913Z,4.50
2023-01-21T13:43:08.189Z,4.38
2023-01-21T13:46:03.665Z,4.28
2023-01-21T13:49:25.568Z,4.41
2023-01-21T13:52:01.914Z,4.49
2023-01-21T13:54:34.619Z,4.54
2023-01-21T13:57:55.579Z,4.41
2023-01-21T14:00:37.902Z,4.45
2023-01-21T14:03:08.311Z,4.46
2023-01-21T14:05:45.472Z,4.44
2023-01-21T14:08:47.674Z,4.52
2023-01-21T14:11:31.783Z,4.57
2023-01-21T14:14:18.822Z,4.53
2023-01-21T14:17:23.626Z,4.43
2023-01-21T14:20:12.822Z,4.30
2023-01-21T14:22:52.097Z,4.32
2023-01-21T14:25:22.514Z,4.20
2023-01-21T14:28:33.899Z,4.13
2023-01-21T14:31:15.357Z,4.07
2023-01-21T14:33:48.822Z,4.02
2023-01-21T14:36:38.658Z,4.06
2023-01-21T14:39:34.862Z,3.95
2023-01-21T14:42:14.910Z,3.96
2023-01-21T14:44:43.595Z,3.93
2023-01-21T14:47:40.221Z,3.92
2023-01-21T14:50:10.277Z,3.87
2023-01-21T14:52:47.392Z,3.81
2023-01-21T14:55:31.363Z,3.77
2023-01-21T14:58:01.875Z,3.82
2023-01-21T15:00:32.839Z,3.83
2023-01-21T15:03:27.132Z,3.64
2023-01-21T15:06:09.905Z,3.67
2023-01-21T15:08:46.408Z,3.70
2023-01-21T15:11:38.807Z,3.68
2023-01-21T15:14:25.989Z,3.67
2023-01-21T15:16:53.562Z,3.61
2023-01-21T15:19:36.370Z,3.57
2023-01-21T15:22:15.568Z,3.62
2023-01-21T15:25:20.966Z,3.59
2023-01-21T15:28:40.463Z,3.65
2023-01-21T15:31:40.214Z,3.66
2023-01-21T15:34:18.465Z,3.52
2023-01-21T15:36:53.449Z,3.48
2023-01-21T15:39:34.652Z,3.49
2023-01-21T15:42:38.480Z,3.45
2023-01-21T15:45:26.678Z,3.49
2023-01-21T15:48:42.525Z,3.45
2023-01-21T15:51:20.805Z,3.48
2023-01-21T15:54:48.208Z,3.39
2023-01-21T15:57:50.609Z,3.39
2023-01-21T16:00:29.752Z,3.36
2023-01-21T16:03:35.483Z,3.28
2023-01-21T16:06:29.550Z,3.28
2023-01-21T16:09:10.141Z,3.28
2023-01-21T16:12:23.253Z,3.31
2023-01-21T16:15:30.513Z,3.25
2023-01-21T16:18:12.847Z,3.26
2023-01-21T16:20:47.850Z,3.27
2023-01-21T16:23:19.093Z,3.32
2023-01-21T16:25:52.875Z,3.40
2023-01-21T16:28:21.656Z,3.46
2023-01-21T16:30:59.250Z,3.56
2023-01-21T16:33:27.026Z,3.63
2023-01-21T16:36:01.121Z,3.66
2023-01-21T16:38:32.375Z,3.70
2023-01-21T16:41:08.509Z,3.74
2023-01-21T16:43:45.682Z,3.78
2023-01-21T16:46:17.989Z,3.81
2023-01-21T16:48:57.518Z,3.86
2023-01-21T16:51:33.461Z,3.90
2023-01-21T16:54:33.837Z,3.91
2023-01-21T16:57:25.783Z,3.87
2023-01-21T16:59:56.012Z,3.91
2023-01-21T17:02:34.103Z,3.84
2023-01-21T17:05:08.314Z,3.84
2023-01-21T17:07:50.745Z,3.82
2023-01-21T17:10:24.612Z,3.74
2023-01-21T17:13:16.223Z,3.57
2023-01-21T17:15:57.544Z,3.52
2023-01-21T17:18:42.866Z,3.50
2023-01-21T17:21:17.147Z,3.49
2023-01-21T17:23:55.668Z,3.48
2023-01-21T17:26:31.708Z,3.48
2023-01-21T17:29:21.245Z,3.50
2023-01-21T17:32:00.309Z,3.52
2023-01-21T17:34:40.568Z,3.57
2023-01-21T17:37:51.361Z,3.58
2023-01-21T17:40:58.900Z,3.60
2023-01-21T17:43:28.085Z,3.62
2023-01-21T17:45:58.194Z,3.62
2023-01-21T17:48:36.624Z,3.62
2023-01-21T17:51:13.905Z,3.58
2023-01-21T17:54:00.840Z,3.63
2023-01-21T17:56:37.778Z,3.58
2023-01-21T17:59:41.026Z,3.59
2023-01-21T18:02:15.072Z,3.60
2023-01-21T18:04:43.571Z,3.62
2023-01-21T18:07:30.046Z,3.56
2023-01-21T18:10:02.809Z,3.55
2023-01-21T18:12:30.165Z,3.56
2023-01-21T18:14:58.618Z,3.53
2023-01-21T18:17:26.327Z,3.49
2023-01-21T18:19:54.115Z,3.54
2023-01-21T18:22:30.521Z,3.58
2023-01-21T18:24:58.357Z,3.57
2023-01-21T18:27:26.411Z,3.62
2023-01-21T18:29:54.644Z,3.59
2023-01-21T18:32:22.101Z,3.58
2023-01-21T18:34:49.674Z,3.59
2023-01-21T18:37:19.545Z,3.61
2023-01-21T18:39:47.418Z,3.61
2023-01-21T18:42:18.225Z,3.63
2023-01-21T18:44:46.302Z,3.63
2023-01-21T18:47:19.489Z,3.67
2023-01-21T18:49:49.520Z,3.70
2023-01-21T18:52:21.334Z,3.76
2023-01-21T18:54:48.894Z,3.78
2023-01-21T18:57:21.674Z,3.80
2023-01-21T18:59:49.390Z,3.79
2023-01-21T19:02:20.174Z,3.82
2023-01-21T19:04:48.511Z,3.83
2023-01-21T19:07:21.572Z,3.87
2023-01-21T19:09:51.314Z,3.91
2023-01-21T19:12:21.358Z,3.96
2023-01-21T19:14:49.440Z,3.99
2023-01-21T19:17:27.627Z,4.00
2023-01-21T19:19:57.133Z,4.01
2023-01-21T19:22:24.902Z,4.01
2023-01-21T19:24:52.704Z,3.96
2023-01-21T19:27:32.172Z,3.95
2023-01-21T19:29:59.773Z,3.93
2023-01-21T19:32:27.151Z,3.80
2023-01-21T19:34:57.023Z,3.66
2023-01-21T19:37:25.699Z,3.41
2023-01-21T19:39:53.395Z,3.44
2023-01-21T19:42:21.085Z,3.48
2023-01-21T19:44:48.681Z,3.51
2023-01-21T19:47:27.799Z,3.46
2023-01-21T19:49:55.453Z,3.53
2023-01-21T19:52:22.783Z,3.48
2023-01-21T19:54:50.346Z,3.50
2023-01-21T19:57:18.188Z,3.29
2023-01-21T19:59:49.592Z,3.19
2023-01-21T20:02:17.053Z,3.24
2023-01-21T20:04:45.394Z,3.30
2023-01-21T20:07:15.572Z,3.27
2023-01-21T20:09:43.286Z,3.23
2023-01-21T20:12:13.559Z,3.16
2023-01-21T20:14:41.187Z,2.92
2023-01-21T20:17:14.175Z,2.97
2023-01-21T20:19:41.894Z,3.02
2023-01-21T20:22:10.741Z,3.02
2023-01-21T20:24:38.351Z,3.06
2023-01-21T20:27:09.356Z,3.13
2023-01-21T20:29:44.476Z,3.20
2023-01-21T20:32:12.096Z,3.22
2023-01-21T20:34:39.751Z,3.19
2023-01-21T20:37:09.225Z,3.21
2023-01-21T20:39:36.862Z,3.22
2023-01-21T20:42:04.386Z,3.20
2023-01-21T20:44:32.120Z,3.12
2023-01-21T20:47:01.093Z,3.10
2023-01-21T20:49:30.782Z,3.10
2023-01-21T20:51:58.156Z,2.97
2023-01-21T20:54:26.801Z,2.98
2023-01-21T20:56:54.104Z,2.76
2023-01-21T20:59:21.919Z,2.65
2023-01-21T21:01:51.416Z,2.59
2023-01-21T21:04:19.216Z,2.64
2023-01-21T21:06:46.564Z,2.74
2023-01-21T21:09:14.140Z,2.65
2023-01-21T21:11:41.455Z,2.74
2023-01-21T21:14:09.042Z,2.78
2023-01-21T21:16:36.519Z,2.63
2023-01-21T21:19:04.295Z,2.55
2023-01-21T21:21:31.620Z,2.50
2023-01-21T21:23:59.643Z,2.39
2023-01-21T21:26:33.569Z,2.46
2023-01-21T21:29:01.314Z,2.58
2023-01-21T21:31:32.126Z,2.59
2023-01-21T21:33:59.858Z,2.53
2023-01-21T21:36:27.454Z,2.64
2023-01-21T21:38:56.015Z,2.68
2023-01-21T21:41:45.074Z,2.66
2023-01-21T21:44:13.358Z,2.46
2023-01-21T21:47:00.023Z,2.72
2023-01-21T21:49:28.831Z,2.63
2023-01-21T21:51:57.080Z,2.66
2023-01-21T21:54:24.688Z,2.70
2023-01-21T21:56:52.302Z,2.70
2023-01-21T21:59:19.863Z,2.66
2023-01-21T22:01:47.240Z,2.73
2023-01-21T22:04:15.132Z,2.75
2023-01-21T22:06:42.461Z,2.77
2023-01-21T22:09:10.940Z,2.66
2023-01-21T22:11:38.516Z,2.74
2023-01-21T22:14:06.334Z,2.66
2023-01-21T22:16:34.211Z,2.68
2023-01-21T22:19:01.961Z,2.77
2023-01-21T22:21:33.100Z,2.63
2023-01-21T22:24:08.347Z,2.61
2023-01-21T22:26:36.219Z,2.54
2023-01-21T22:29:05.410Z,2.49
2023-01-21T22:31:33.906Z,2.45
2023-01-21T22:34:02.075Z,2.55
2023-01-21T22:36:31.657Z,2.54
2023-01-21T22:38:59.796Z,2.52
2023-01-21T22:41:28.146Z,2.54
2023-01-21T22:43:56.040Z,2.41
2023-01-21T22:46:27.166Z,2.33
2023-01-21T22:48:55.376Z,2.32
2023-01-21T22:51:23.710Z,2.33
2023-01-21T22:53:52.992Z,2.28
2023-01-21T22:56:31.492Z,2.18
2023-01-21T22:59:03.462Z,2.23
2023-01-21T23:01:31.811Z,2.26
2023-01-21T23:04:00.607Z,2.11
2023-01-21T23:06:28.666Z,2.22
2023-01-21T23:08:56.512Z,2.28
2023-01-21T23:11:23.887Z,2.35
2023-01-21T23:13:53.416Z,2.27
2023-01-21T23:16:21.386Z,2.24
2023-01-21T23:18:49.881Z,2.10
2023-01-21T23:21:21.502Z,2.15
2023-01-21T23:23:50.180Z,2.13
2023-01-21T23:26:19.537Z,2.17
2023-01-21T23:28:47.463Z,2.13
2023-01-21T23:31:17.585Z,2.02
2023-01-21T23:33:53.263Z,1.98
2023-01-21T23:36:20.653Z,1.90
2023-01-21T23:38:48.246Z,2.10
2023-01-21T23:41:21.204Z,1.96
2023-01-21T23:43:48.768Z,1.98
2023-01-21T23:46:19.850Z,2.04
2023-01-21T23:48:47.881Z,2.05
2023-01-21T23:51:17.358Z,2.19
2023-01-21T23:53:49.083Z,2.01
2023-01-21T23:56:21.857Z,2.10
2023-01-21T23:58:51.316Z,2.07
